sensor_id;sensor_type;location;lat;lon;timestamp;P1;durP1;ratioP1;P2;durP2;ratioP2
18021;SDS011;9136;48.822;7.966;2023-07-31T00:01:30;14.33;;;13.67;;
18021;SDS011;9136;48.822;7.966;2023-07-31T00:04:26;13.40;;;12.80;;
18021;SDS011;9136;48.822;7.966;2023-07-31T00:07:18;15.37;;;14.67;;
18021;SDS011;9136;48.822;7.966;2023-07-31T00:10:09;15.00;;;14.27;;
18021;SDS011;9136;48.822;7.966;2023-07-31T00:13:03;13.82;;;13.23;;
18021;SDS011;9136;48.822;7.966;2023-07-31T00:15:57;14.73;;;14.13;;
18021;SDS011;9136;48.822;7.966;2023-07-31T00:18:52;14.73;;;14.13;;
18021;SDS011;9136;48.822;7.966;2023-07-31T00:21:46;14.07;;;13.47;;
18021;SDS011;9136;48.822;7.966;2023-07-31T00:24:56;16.20;;;15.40;;
18021;SDS011;9136;48.822;7.966;2023-07-31T00:27:51;15.73;;;15.03;;
18021;SDS011;9136;48.822;7.966;2023-07-31T00:30:43;15.87;;;15.17;;
18021;SDS011;9136;48.822;7.966;2023-07-31T00:33:40;13.93;;;13.33;;
18021;SDS011;9136;48.822;7.966;2023-07-31T00:36:30;15.67;;;14.97;;
18021;SDS011;9136;48.822;7.966;2023-07-31T00:39:29;14.23;;;13.63;;
18021;SDS011;9136;48.822;7.966;2023-07-31T00:42:21;15.23;;;14.57;;
18021;SDS011;9136;48.822;7.966;2023-07-31T00:45:13;15.47;;;14.77;;
18021;SDS011;9136;48.822;7.966;2023-07-31T00:48:05;16.07;;;15.17;;
18021;SDS011;9136;48.822;7.966;2023-07-31T00:50:57;16.07;;;15.37;;
18021;SDS011;9136;48.822;7.966;2023-07-31T00:53:49;17.77;;;16.63;;
18021;SDS011;9136;48.822;7.966;2023-07-31T00:56:46;15.93;;;15.23;;
18021;SDS011;9136;48.822;7.966;2023-07-31T00:59:39;15.47;;;14.70;;
18021;SDS011;9136;48.822;7.966;2023-07-31T01:02:29;15.90;;;15.20;;
18021;SDS011;9136;48.822;7.966;2023-07-31T01:05:31;16.20;;;15.50;;
18021;SDS011;9136;48.822;7.966;2023-07-31T01:08:28;17.13;;;16.03;;
18021;SDS011;9136;48.822;7.966;2023-07-31T01:11:35;15.27;;;14.57;;
18021;SDS011;9136;48.822;7.966;2023-07-31T01:14:52;16.60;;;15.67;;
18021;SDS011;9136;48.822;7.966;2023-07-31T01:17:52;14.13;;;13.53;;
18021;SDS011;9136;48.822;7.966;2023-07-31T01:20:44;12.77;;;12.27;;
18021;SDS011;9136;48.822;7.966;2023-07-31T01:23:50;14.70;;;14.00;;
18021;SDS011;9136;48.822;7.966;2023-07-31T01:26:57;13.27;;;12.67;;
18021;SDS011;9136;48.822;7.966;2023-07-31T01:29:53;14.50;;;13.90;;
18021;SDS011;9136;48.822;7.966;2023-07-31T01:32:55;15.80;;;15.10;;
18021;SDS011;9136;48.822;7.966;2023-07-31T01:35:52;14.97;;;14.27;;
18021;SDS011;9136;48.822;7.966;2023-07-31T01:38:41;15.50;;;14.80;;
18021;SDS011;9136;48.822;7.966;2023-07-31T01:41:36;16.67;;;15.77;;
18021;SDS011;9136;48.822;7.966;2023-07-31T01:47:41;15.27;;;14.60;;
18021;SDS011;9136;48.822;7.966;2023-07-31T01:50:41;15.47;;;14.77;;
18021;SDS011;9136;48.822;7.966;2023-07-31T01:53:45;15.27;;;14.57;;
18021;SDS011;9136;48.822;7.966;2023-07-31T01:56:37;15.33;;;14.63;;
18021;SDS011;9136;48.822;7.966;2023-07-31T01:59:31;15.47;;;14.77;;
18021;SDS011;9136;48.822;7.966;2023-07-31T02:02:31;15.23;;;14.53;;
18021;SDS011;9136;48.822;7.966;2023-07-31T02:05:23;14.57;;;13.97;;
18021;SDS011;9136;48.822;7.966;2023-07-31T02:08:17;15.20;;;14.50;;
18021;SDS011;9136;48.822;7.966;2023-07-31T02:11:08;16.10;;;15.37;;
18021;SDS011;9136;48.822;7.966;2023-07-31T02:13:56;14.63;;;14.03;;
18021;SDS011;9136;48.822;7.966;2023-07-31T02:16:45;14.97;;;14.30;;
18021;SDS011;9136;48.822;7.966;2023-07-31T02:19:36;14.70;;;14.10;;
18021;SDS011;9136;48.822;7.966;2023-07-31T02:22:37;15.77;;;14.97;;
18021;SDS011;9136;48.822;7.966;2023-07-31T02:25:30;14.70;;;14.10;;
18021;SDS011;9136;48.822;7.966;2023-07-31T02:28:19;16.80;;;16.00;;
18021;SDS011;9136;48.822;7.966;2023-07-31T02:31:10;15.50;;;14.80;;
18021;SDS011;9136;48.822;7.966;2023-07-31T02:34:01;15.53;;;14.73;;
18021;SDS011;9136;48.822;7.966;2023-07-31T02:37:10;15.70;;;15.00;;
18021;SDS011;9136;48.822;7.966;2023-07-31T02:40:17;15.33;;;14.63;;
18021;SDS011;9136;48.822;7.966;2023-07-31T02:43:11;15.80;;;15.10;;
18021;SDS011;9136;48.822;7.966;2023-07-31T02:46:13;16.70;;;16.00;;
18021;SDS011;9136;48.822;7.966;2023-07-31T02:49:16;16.47;;;15.67;;
18021;SDS011;9136;48.822;7.966;2023-07-31T02:52:07;15.43;;;14.73;;
18021;SDS011;9136;48.822;7.966;2023-07-31T02:55:06;14.33;;;13.73;;
18021;SDS011;9136;48.822;7.966;2023-07-31T02:58:55;14.83;;;14.20;;
18021;SDS011;9136;48.822;7.966;2023-07-31T03:02:05;17.47;;;16.67;;
18021;SDS011;9136;48.822;7.966;2023-07-31T03:05:14;15.50;;;14.70;;
18021;SDS011;9136;48.822;7.966;2023-07-31T03:08:09;14.07;;;13.47;;
18021;SDS011;9136;48.822;7.966;2023-07-31T03:11:42;15.77;;;15.07;;
18021;SDS011;9136;48.822;7.966;2023-07-31T03:14:49;15.20;;;14.50;;
18021;SDS011;9136;48.822;7.966;2023-07-31T03:17:49;16.70;;;15.90;;
18021;SDS011;9136;48.822;7.966;2023-07-31T03:20:53;16.37;;;15.57;;
18021;SDS011;9136;48.822;7.966;2023-07-31T03:23:55;15.73;;;15.03;;
18021;SDS011;9136;48.822;7.966;2023-07-31T03:26:58;15.50;;;14.80;;
18021;SDS011;9136;48.822;7.966;2023-07-31T03:30:10;16.03;;;15.33;;
18021;SDS011;9136;48.822;7.966;2023-07-31T03:33:32;17.07;;;16.33;;
18021;SDS011;9136;48.822;7.966;2023-07-31T03:36:29;15.10;;;14.40;;
18021;SDS011;9136;48.822;7.966;2023-07-31T03:39:41;16.17;;;15.37;;
18021;SDS011;9136;48.822;7.966;2023-07-31T03:42:32;15.47;;;14.77;;
18021;SDS011;9136;48.822;7.966;2023-07-31T03:45:30;14.70;;;14.10;;
18021;SDS011;9136;48.822;7.966;2023-07-31T03:48:55;13.87;;;13.27;;
18021;SDS011;9136;48.822;7.966;2023-07-31T03:52:00;15.83;;;15.13;;
18021;SDS011;9136;48.822;7.966;2023-07-31T03:54:54;16.10;;;15.40;;
18021;SDS011;9136;48.822;7.966;2023-07-31T03:57:42;14.63;;;14.03;;
18021;SDS011;9136;48.822;7.966;2023-07-31T04:00:39;14.63;;;14.03;;
18021;SDS011;9136;48.822;7.966;2023-07-31T04:03:33;16.47;;;15.77;;
18021;SDS011;9136;48.822;7.966;2023-07-31T04:06:29;16.30;;;15.60;;
18021;SDS011;9136;48.822;7.966;2023-07-31T04:09:18;15.97;;;15.27;;
18021;SDS011;9136;48.822;7.966;2023-07-31T04:12:23;16.07;;;15.17;;
18021;SDS011;9136;48.822;7.966;2023-07-31T04:15:29;15.50;;;14.80;;
18021;SDS011;9136;48.822;7.966;2023-07-31T04:18:18;15.27;;;14.57;;
18021;SDS011;9136;48.822;7.966;2023-07-31T04:21:07;15.10;;;14.40;;
18021;SDS011;9136;48.822;7.966;2023-07-31T04:23:56;15.97;;;15.27;;
18021;SDS011;9136;48.822;7.966;2023-07-31T04:26:46;15.67;;;14.97;;
18021;SDS011;9136;48.822;7.966;2023-07-31T04:29:51;15.80;;;15.00;;
18021;SDS011;9136;48.822;7.966;2023-07-31T04:32:39;15.03;;;14.30;;
18021;SDS011;9136;48.822;7.966;2023-07-31T04:35:30;15.67;;;14.97;;
18021;SDS011;9136;48.822;7.966;2023-07-31T04:42:13;15.60;;;14.80;;
18021;SDS011;9136;48.822;7.966;2023-07-31T04:45:04;15.10;;;14.40;;
18021;SDS011;9136;48.822;7.966;2023-07-31T04:47:56;18.57;;;17.57;;
18021;SDS011;9136;48.822;7.966;2023-07-31T04:50:44;17.33;;;16.53;;
18021;SDS011;9136;48.822;7.966;2023-07-31T04:53:33;15.67;;;14.87;;
18021;SDS011;9136;48.822;7.966;2023-07-31T04:56:27;16.23;;;15.43;;
18021;SDS011;9136;48.822;7.966;2023-07-31T04:59:15;16.53;;;15.83;;
18021;SDS011;9136;48.822;7.966;2023-07-31T05:02:08;17.03;;;16.33;;
18021;SDS011;9136;48.822;7.966;2023-07-31T05:05:04;15.60;;;14.90;;
18021;SDS011;9136;48.822;7.966;2023-07-31T05:07:52;14.40;;;13.80;;
18021;SDS011;9136;48.822;7.966;2023-07-31T05:10:41;14.70;;;13.90;;
18021;SDS011;9136;48.822;7.966;2023-07-31T05:13:31;17.20;;;16.30;;
18021;SDS011;9136;48.822;7.966;2023-07-31T05:16:25;16.00;;;15.30;;
18021;SDS011;9136;48.822;7.966;2023-07-31T05:19:14;14.83;;;14.10;;
18021;SDS011;9136;48.822;7.966;2023-07-31T05:22:07;16.00;;;15.30;;
18021;SDS011;9136;48.822;7.966;2023-07-31T05:24:57;15.10;;;14.40;;
18021;SDS011;9136;48.822;7.966;2023-07-31T05:27:45;15.93;;;15.13;;
18021;SDS011;9136;48.822;7.966;2023-07-31T05:30:38;15.57;;;14.87;;
18021;SDS011;9136;48.822;7.966;2023-07-31T05:33:34;15.27;;;14.57;;
18021;SDS011;9136;48.822;7.966;2023-07-31T05:36:28;14.67;;;13.97;;
18021;SDS011;9136;48.822;7.966;2023-07-31T05:39:21;16.90;;;16.10;;
18021;SDS011;9136;48.822;7.966;2023-07-31T05:42:13;14.90;;;14.20;;
18021;SDS011;9136;48.822;7.966;2023-07-31T05:45:01;15.37;;;14.67;;
18021;SDS011;9136;48.822;7.966;2023-07-31T05:47:52;14.60;;;14.00;;
18021;SDS011;9136;48.822;7.966;2023-07-31T05:50:41;15.03;;;14.37;;
18021;SDS011;9136;48.822;7.966;2023-07-31T05:53:34;15.73;;;14.87;;
18021;SDS011;9136;48.822;7.966;2023-07-31T05:56:40;16.07;;;15.20;;
18021;SDS011;9136;48.822;7.966;2023-07-31T05:59:29;14.47;;;13.87;;
18021;SDS011;9136;48.822;7.966;2023-07-31T06:02:22;15.63;;;14.93;;
18021;SDS011;9136;48.822;7.966;2023-07-31T06:05:24;15.90;;;15.20;;
18021;SDS011;9136;48.822;7.966;2023-07-31T06:08:17;14.57;;;13.93;;
18021;SDS011;9136;48.822;7.966;2023-07-31T06:11:11;15.23;;;14.53;;
18021;SDS011;9136;48.822;7.966;2023-07-31T06:14:18;16.37;;;15.67;;
18021;SDS011;9136;48.822;7.966;2023-07-31T06:17:10;15.60;;;14.90;;
18021;SDS011;9136;48.822;7.966;2023-07-31T06:19:58;15.90;;;15.20;;
18021;SDS011;9136;48.822;7.966;2023-07-31T06:22:52;16.43;;;15.73;;
18021;SDS011;9136;48.822;7.966;2023-07-31T06:25:54;16.10;;;15.40;;
18021;SDS011;9136;48.822;7.966;2023-07-31T06:28:43;16.67;;;15.97;;
18021;SDS011;9136;48.822;7.966;2023-07-31T06:31:39;16.60;;;15.80;;
18021;SDS011;9136;48.822;7.966;2023-07-31T06:34:34;16.95;;;16.15;;
18021;SDS011;9136;48.822;7.966;2023-07-31T06:37:30;16.02;;;15.30;;
18021;SDS011;9136;48.822;7.966;2023-07-31T06:40:23;15.40;;;14.70;;
18021;SDS011;9136;48.822;7.966;2023-07-31T06:43:11;17.85;;;17.05;;
18021;SDS011;9136;48.822;7.966;2023-07-31T06:46:01;16.30;;;15.60;;
18021;SDS011;9136;48.822;7.966;2023-07-31T06:49:02;15.40;;;14.37;;
18021;SDS011;9136;48.822;7.966;2023-07-31T06:52:07;16.20;;;15.10;;
18021;SDS011;9136;48.822;7.966;2023-07-31T06:55:00;16.47;;;15.73;;
18021;SDS011;9136;48.822;7.966;2023-07-31T06:57:51;17.67;;;16.67;;
18021;SDS011;9136;48.822;7.966;2023-07-31T07:00:40;15.60;;;14.90;;
18021;SDS011;9136;48.822;7.966;2023-07-31T07:03:31;16.27;;;15.48;;
18021;SDS011;9136;48.822;7.966;2023-07-31T07:06:23;16.50;;;15.43;;
18021;SDS011;9136;48.822;7.966;2023-07-31T07:09:13;15.63;;;14.93;;
18021;SDS011;9136;48.822;7.966;2023-07-31T07:12:06;16.08;;;15.30;;
18021;SDS011;9136;48.822;7.966;2023-07-31T07:14:54;17.50;;;16.70;;
18021;SDS011;9136;48.822;7.966;2023-07-31T07:17:44;14.38;;;13.77;;
18021;SDS011;9136;48.822;7.966;2023-07-31T07:20:37;17.48;;;15.75;;
18021;SDS011;9136;48.822;7.966;2023-07-31T07:23:24;15.10;;;14.48;;
18021;SDS011;9136;48.822;7.966;2023-07-31T07:26:17;15.52;;;14.73;;
18021;SDS011;9136;48.822;7.966;2023-07-31T07:29:15;15.63;;;14.93;;
18021;SDS011;9136;48.822;7.966;2023-07-31T07:32:03;18.73;;;17.00;;
18021;SDS011;9136;48.822;7.966;2023-07-31T07:34:53;14.77;;;14.18;;
18021;SDS011;9136;48.822;7.966;2023-07-31T07:37:48;15.48;;;14.77;;
18021;SDS011;9136;48.822;7.966;2023-07-31T07:40:40;14.55;;;13.75;;
18021;SDS011;9136;48.822;7.966;2023-07-31T07:43:41;15.27;;;14.38;;
18021;SDS011;9136;48.822;7.966;2023-07-31T08:01:01;16.17;;;15.48;;
18021;SDS011;9136;48.822;7.966;2023-07-31T08:03:51;16.10;;;15.40;;
18021;SDS011;9136;48.822;7.966;2023-07-31T08:06:42;16.13;;;15.43;;
18021;SDS011;9136;48.822;7.966;2023-07-31T08:09:52;16.58;;;15.88;;
18021;SDS011;9136;48.822;7.966;2023-07-31T08:13:51;15.20;;;14.50;;
18021;SDS011;9136;48.822;7.966;2023-07-31T08:16:33;14.20;;;13.60;;
18021;SDS011;9136;48.822;7.966;2023-07-31T08:19:27;15.52;;;14.82;;
18021;SDS011;9136;48.822;7.966;2023-07-31T08:22:35;16.95;;;16.15;;
18021;SDS011;9136;48.822;7.966;2023-07-31T08:25:38;14.70;;;14.05;;
18021;SDS011;9136;48.822;7.966;2023-07-31T08:29:49;14.10;;;13.50;;
18021;SDS011;9136;48.822;7.966;2023-07-31T08:35:23;16.30;;;15.60;;
18021;SDS011;9136;48.822;7.966;2023-07-31T08:50:53;17.02;;;16.23;;
18021;SDS011;9136;48.822;7.966;2023-07-31T08:54:10;15.90;;;15.20;;
18021;SDS011;9136;48.822;7.966;2023-07-31T09:00:15;16.63;;;15.73;;
18021;SDS011;9136;48.822;7.966;2023-07-31T09:03:13;14.45;;;13.85;;
18021;SDS011;9136;48.822;7.966;2023-07-31T09:06:08;15.40;;;14.70;;
18021;SDS011;9136;48.822;7.966;2023-07-31T09:09:02;14.88;;;14.18;;
18021;SDS011;9136;48.822;7.966;2023-07-31T09:12:07;14.15;;;13.55;;
18021;SDS011;9136;48.822;7.966;2023-07-31T09:14:57;15.27;;;14.57;;
18021;SDS011;9136;48.822;7.966;2023-07-31T09:17:45;16.10;;;15.30;;
18021;SDS011;9136;48.822;7.966;2023-07-31T09:20:47;17.58;;;16.67;;
18021;SDS011;9136;48.822;7.966;2023-07-31T09:23:57;16.52;;;15.82;;
18021;SDS011;9136;48.822;7.966;2023-07-31T09:26:46;15.88;;;15.18;;
18021;SDS011;9136;48.822;7.966;2023-07-31T09:29:36;16.17;;;15.40;;
18021;SDS011;9136;48.822;7.966;2023-07-31T09:32:28;16.65;;;15.95;;
18021;SDS011;9136;48.822;7.966;2023-07-31T09:35:21;16.23;;;15.52;;
18021;SDS011;9136;48.822;7.966;2023-07-31T09:38:11;16.48;;;15.77;;
18021;SDS011;9136;48.822;7.966;2023-07-31T09:41:05;16.70;;;15.95;;
18021;SDS011;9136;48.822;7.966;2023-07-31T09:43:54;15.73;;;15.02;;
18021;SDS011;9136;48.822;7.966;2023-07-31T09:46:43;15.65;;;14.95;;
18021;SDS011;9136;48.822;7.966;2023-07-31T09:49:36;16.02;;;15.32;;
18021;SDS011;9136;48.822;7.966;2023-07-31T09:52:25;16.73;;;16.02;;
18021;SDS011;9136;48.822;7.966;2023-07-31T09:55:26;14.50;;;13.90;;
18021;SDS011;9136;48.822;7.966;2023-07-31T09:58:19;14.80;;;14.20;;
18021;SDS011;9136;48.822;7.966;2023-07-31T10:01:10;14.15;;;13.55;;
18021;SDS011;9136;48.822;7.966;2023-07-31T10:03:59;14.57;;;13.82;;
18021;SDS011;9136;48.822;7.966;2023-07-31T10:06:48;13.43;;;12.82;;
18021;SDS011;9136;48.822;7.966;2023-07-31T10:09:40;15.00;;;14.30;;
18021;SDS011;9136;48.822;7.966;2023-07-31T10:12:32;13.52;;;12.90;;
18021;SDS011;9136;48.822;7.966;2023-07-31T10:15:22;14.70;;;14.00;;
18021;SDS011;9136;48.822;7.966;2023-07-31T10:18:10;15.48;;;14.68;;
18021;SDS011;9136;48.822;7.966;2023-07-31T10:20:59;14.63;;;14.02;;
18021;SDS011;9136;48.822;7.966;2023-07-31T10:23:47;14.77;;;14.13;;
18021;SDS011;9136;48.822;7.966;2023-07-31T10:26:37;13.68;;;13.07;;
18021;SDS011;9136;48.822;7.966;2023-07-31T10:29:26;14.98;;;14.30;;
18021;SDS011;9136;48.822;7.966;2023-07-31T10:32:17;15.18;;;14.40;;
18021;SDS011;9136;48.822;7.966;2023-07-31T10:35:10;13.40;;;12.80;;
18021;SDS011;9136;48.822;7.966;2023-07-31T10:38:08;13.57;;;12.98;;
18021;SDS011;9136;48.822;7.966;2023-07-31T10:41:08;20.90;;;15.48;;
18021;SDS011;9136;48.822;7.966;2023-07-31T10:43:57;14.30;;;13.60;;
18021;SDS011;9136;48.822;7.966;2023-07-31T10:46:48;13.63;;;13.02;;
18021;SDS011;9136;48.822;7.966;2023-07-31T10:49:46;13.20;;;12.60;;
18021;SDS011;9136;48.822;7.966;2023-07-31T10:52:42;14.63;;;13.70;;
18021;SDS011;9136;48.822;7.966;2023-07-31T10:55:52;12.88;;;12.27;;
18021;SDS011;9136;48.822;7.966;2023-07-31T10:58:46;12.95;;;12.35;;
18021;SDS011;9136;48.822;7.966;2023-07-31T11:02:33;12.82;;;12.30;;
18021;SDS011;9136;48.822;7.966;2023-07-31T11:05:51;14.30;;;13.55;;
18021;SDS011;9136;48.822;7.966;2023-07-31T11:09:05;12.95;;;12.35;;
18021;SDS011;9136;48.822;7.966;2023-07-31T11:12:33;12.77;;;12.18;;
18021;SDS011;9136;48.822;7.966;2023-07-31T11:15:59;12.25;;;11.75;;
18021;SDS011;9136;48.822;7.966;2023-07-31T11:19:11;14.38;;;13.00;;
18021;SDS011;9136;48.822;7.966;2023-07-31T11:22:11;13.95;;;13.35;;
18021;SDS011;9136;48.822;7.966;2023-07-31T11:26:43;13.48;;;12.88;;
18021;SDS011;9136;48.822;7.966;2023-07-31T11:29:25;14.15;;;13.45;;
18021;SDS011;9136;48.822;7.966;2023-07-31T11:33:13;14.98;;;13.90;;
18021;SDS011;9136;48.822;7.966;2023-07-31T11:39:53;12.60;;;12.10;;
18021;SDS011;9136;48.822;7.966;2023-07-31T11:55:29;12.52;;;11.93;;
18021;SDS011;9136;48.822;7.966;2023-07-31T11:57:08;11.40;;;10.90;;
18021;SDS011;9136;48.822;7.966;2023-07-31T12:00:10;13.43;;;12.82;;
18021;SDS011;9136;48.822;7.966;2023-07-31T12:03:41;11.73;;;11.07;;
18021;SDS011;9136;48.822;7.966;2023-07-31T12:07:15;13.40;;;12.80;;
18021;SDS011;9136;48.822;7.966;2023-07-31T12:13:58;12.80;;;12.10;;
18021;SDS011;9136;48.822;7.966;2023-07-31T12:17:14;12.70;;;12.05;;
18021;SDS011;9136;48.822;7.966;2023-07-31T16:36:25;12.00;;;11.40;;
18021;SDS011;9136;48.822;7.966;2023-07-31T16:39:19;14.00;;;13.40;;
18021;SDS011;9136;48.822;7.966;2023-07-31T16:42:39;12.93;;;12.32;;
18021;SDS011;9136;48.822;7.966;2023-07-31T16:45:39;12.52;;;11.93;;
18021;SDS011;9136;48.822;7.966;2023-07-31T16:51:38;12.68;;;12.18;;
18021;SDS011;9136;48.822;7.966;2023-07-31T16:54:33;13.75;;;13.15;;
18021;SDS011;9136;48.822;7.966;2023-07-31T16:57:23;13.75;;;13.15;;
18021;SDS011;9136;48.822;7.966;2023-07-31T17:00:17;13.93;;;13.32;;
18021;SDS011;9136;48.822;7.966;2023-07-31T17:03:10;14.05;;;13.40;;
18021;SDS011;9136;48.822;7.966;2023-07-31T17:06:07;13.02;;;12.50;;
18021;SDS011;9136;48.822;7.966;2023-07-31T17:09:06;12.68;;;11.95;;
18021;SDS011;9136;48.822;7.966;2023-07-31T17:12:07;13.93;;;13.23;;
18021;SDS011;9136;48.822;7.966;2023-07-31T17:14:59;12.77;;;12.27;;
18021;SDS011;9136;48.822;7.966;2023-07-31T17:17:56;13.10;;;12.50;;
18021;SDS011;9136;48.822;7.966;2023-07-31T17:21:09;15.18;;;13.05;;
18021;SDS011;9136;48.822;7.966;2023-07-31T17:23:59;12.48;;;11.88;;
18021;SDS011;9136;48.822;7.966;2023-07-31T17:26:51;12.45;;;11.95;;
18021;SDS011;9136;48.822;7.966;2023-07-31T17:29:43;12.95;;;12.32;;
18021;SDS011;9136;48.822;7.966;2023-07-31T17:32:35;12.70;;;12.10;;
18021;SDS011;9136;48.822;7.966;2023-07-31T17:35:33;12.77;;;12.18;;
18021;SDS011;9136;48.822;7.966;2023-07-31T17:38:23;14.25;;;13.65;;
18021;SDS011;9136;48.822;7.966;2023-07-31T17:41:11;16.23;;;15.23;;
18021;SDS011;9136;48.822;7.966;2023-07-31T17:43:59;14.48;;;13.77;;
18021;SDS011;9136;48.822;7.966;2023-07-31T17:46:48;15.18;;;14.50;;
18021;SDS011;9136;48.822;7.966;2023-07-31T17:49:37;16.60;;;15.80;;
18021;SDS011;9136;48.822;7.966;2023-07-31T17:52:25;16.80;;;15.90;;
18021;SDS011;9136;48.822;7.966;2023-07-31T17:55:14;20.85;;;16.15;;
18021;SDS011;9136;48.822;7.966;2023-07-31T17:58:02;15.50;;;14.80;;
18021;SDS011;9136;48.822;7.966;2023-07-31T18:00:50;16.98;;;16.17;;
18021;SDS011;9136;48.822;7.966;2023-07-31T18:03:38;15.82;;;14.88;;
18021;SDS011;9136;48.822;7.966;2023-07-31T18:06:26;17.02;;;16.23;;
18021;SDS011;9136;48.822;7.966;2023-07-31T18:09:14;18.10;;;17.30;;
18021;SDS011;9136;48.822;7.966;2023-07-31T18:12:05;16.08;;;15.38;;
18021;SDS011;9136;48.822;7.966;2023-07-31T18:14:54;19.23;;;15.88;;
18021;SDS011;9136;48.822;7.966;2023-07-31T18:17:41;16.30;;;15.60;;
18021;SDS011;9136;48.822;7.966;2023-07-31T18:20:29;16.05;;;15.25;;
18021;SDS011;9136;48.822;7.966;2023-07-31T18:23:17;17.40;;;16.40;;
18021;SDS011;9136;48.822;7.966;2023-07-31T18:26:06;16.92;;;16.13;;
18021;SDS011;9136;48.822;7.966;2023-07-31T18:28:55;18.17;;;17.38;;
18021;SDS011;9136;48.822;7.966;2023-07-31T18:31:43;16.90;;;16.10;;
18021;SDS011;9136;48.822;7.966;2023-07-31T18:34:32;16.60;;;15.90;;
18021;SDS011;9136;48.822;7.966;2023-07-31T18:37:20;17.85;;;17.05;;
18021;SDS011;9136;48.822;7.966;2023-07-31T18:40:08;16.55;;;15.82;;
18021;SDS011;9136;48.822;7.966;2023-07-31T18:42:57;17.90;;;16.95;;
18021;SDS011;9136;48.822;7.966;2023-07-31T18:45:46;15.27;;;14.57;;
18021;SDS011;9136;48.822;7.966;2023-07-31T18:48:34;17.40;;;16.50;;
18021;SDS011;9136;48.822;7.966;2023-07-31T18:51:21;16.45;;;15.73;;
18021;SDS011;9136;48.822;7.966;2023-07-31T18:54:09;16.42;;;15.73;;
18021;SDS011;9136;48.822;7.966;2023-07-31T18:56:57;16.52;;;15.82;;
18021;SDS011;9136;48.822;7.966;2023-07-31T18:59:45;16.02;;;15.32;;
18021;SDS011;9136;48.822;7.966;2023-07-31T19:02:34;16.60;;;15.88;;
18021;SDS011;9136;48.822;7.966;2023-07-31T19:05:24;17.80;;;16.80;;
18021;SDS011;9136;48.822;7.966;2023-07-31T19:08:11;16.25;;;15.55;;
18021;SDS011;9136;48.822;7.966;2023-07-31T19:11:02;16.80;;;15.98;;
18021;SDS011;9136;48.822;7.966;2023-07-31T19:13:51;18.20;;;17.30;;
18021;SDS011;9136;48.822;7.966;2023-07-31T19:16:38;17.27;;;16.48;;
18021;SDS011;9136;48.822;7.966;2023-07-31T19:19:30;16.15;;;15.45;;
18021;SDS011;9136;48.822;7.966;2023-07-31T19:22:19;14.57;;;13.95;;
18021;SDS011;9136;48.822;7.966;2023-07-31T19:25:07;16.42;;;15.73;;
18021;SDS011;9136;48.822;7.966;2023-07-31T19:27:55;17.80;;;16.90;;
18021;SDS011;9136;48.822;7.966;2023-07-31T19:30:44;17.25;;;16.13;;
18021;SDS011;9136;48.822;7.966;2023-07-31T19:33:32;18.38;;;17.58;;
18021;SDS011;9136;48.822;7.966;2023-07-31T19:36:22;15.65;;;14.95;;
18021;SDS011;9136;48.822;7.966;2023-07-31T19:39:10;16.13;;;15.32;;
18021;SDS011;9136;48.822;7.966;2023-07-31T19:41:58;16.35;;;15.65;;
18021;SDS011;9136;48.822;7.966;2023-07-31T19:44:46;15.57;;;14.88;;
18021;SDS011;9136;48.822;7.966;2023-07-31T19:47:34;15.45;;;14.75;;
18021;SDS011;9136;48.822;7.966;2023-07-31T19:50:23;17.50;;;16.70;;
18021;SDS011;9136;48.822;7.966;2023-07-31T19:53:13;17.95;;;17.15;;
18021;SDS011;9136;48.822;7.966;2023-07-31T19:56:01;16.42;;;15.73;;
18021;SDS011;9136;48.822;7.966;2023-07-31T19:58:50;17.55;;;16.75;;
18021;SDS011;9136;48.822;7.966;2023-07-31T20:01:37;17.13;;;16.33;;
18021;SDS011;9136;48.822;7.966;2023-07-31T20:04:25;17.77;;;16.70;;
18021;SDS011;9136;48.822;7.966;2023-07-31T20:07:13;17.52;;;16.73;;
18021;SDS011;9136;48.822;7.966;2023-07-31T20:10:03;17.85;;;17.05;;
18021;SDS011;9136;48.822;7.966;2023-07-31T20:12:53;17.23;;;16.42;;
18021;SDS011;9136;48.822;7.966;2023-07-31T20:15:40;17.65;;;16.65;;
18021;SDS011;9136;48.822;7.966;2023-07-31T20:18:30;16.27;;;15.57;;
18021;SDS011;9136;48.822;7.966;2023-07-31T20:21:19;17.20;;;16.45;;
18021;SDS011;9136;48.822;7.966;2023-07-31T20:24:08;17.20;;;16.40;;
18021;SDS011;9136;48.822;7.966;2023-07-31T20:27:00;15.68;;;14.80;;
18021;SDS011;9136;48.822;7.966;2023-07-31T20:29:47;18.20;;;17.40;;
18021;SDS011;9136;48.822;7.966;2023-07-31T20:32:37;17.65;;;16.85;;
18021;SDS011;9136;48.822;7.966;2023-07-31T20:35:27;18.02;;;17.13;;
18021;SDS011;9136;48.822;7.966;2023-07-31T20:38:14;17.27;;;16.27;;
18021;SDS011;9136;48.822;7.966;2023-07-31T20:41:04;18.08;;;17.27;;
18021;SDS011;9136;48.822;7.966;2023-07-31T20:43:55;17.85;;;17.05;;
18021;SDS011;9136;48.822;7.966;2023-07-31T20:46:43;16.42;;;15.73;;
18021;SDS011;9136;48.822;7.966;2023-07-31T20:49:34;15.07;;;14.38;;
18021;SDS011;9136;48.822;7.966;2023-07-31T20:52:25;18.70;;;17.90;;
18021;SDS011;9136;48.822;7.966;2023-07-31T20:55:15;17.90;;;17.10;;
18021;SDS011;9136;48.822;7.966;2023-07-31T20:58:05;17.05;;;16.33;;
18021;SDS011;9136;48.822;7.966;2023-07-31T21:00:59;18.10;;;17.20;;
18021;SDS011;9136;48.822;7.966;2023-07-31T21:03:52;17.17;;;16.38;;
18021;SDS011;9136;48.822;7.966;2023-07-31T21:06:42;17.17;;;16.38;;
18021;SDS011;9136;48.822;7.966;2023-07-31T21:09:30;15.23;;;14.52;;
18021;SDS011;9136;48.822;7.966;2023-07-31T21:12:21;17.45;;;16.63;;
18021;SDS011;9136;48.822;7.966;2023-07-31T21:15:12;17.70;;;16.83;;
18021;SDS011;9136;48.822;7.966;2023-07-31T21:18:02;17.10;;;16.30;;
18021;SDS011;9136;48.822;7.966;2023-07-31T21:20:53;17.45;;;16.65;;
18021;SDS011;9136;48.822;7.966;2023-07-31T21:23:42;21.02;;;19.80;;
18021;SDS011;9136;48.822;7.966;2023-07-31T21:26:32;18.27;;;17.48;;
18021;SDS011;9136;48.822;7.966;2023-07-31T21:29:20;18.70;;;17.70;;
18021;SDS011;9136;48.822;7.966;2023-07-31T21:32:07;18.58;;;17.73;;
18021;SDS011;9136;48.822;7.966;2023-07-31T21:34:57;17.73;;;16.92;;
18021;SDS011;9136;48.822;7.966;2023-07-31T21:37:45;17.10;;;16.25;;
18021;SDS011;9136;48.822;7.966;2023-07-31T21:40:34;17.13;;;16.33;;
18021;SDS011;9136;48.822;7.966;2023-07-31T21:43:21;18.77;;;17.40;;
18021;SDS011;9136;48.822;7.966;2023-07-31T21:46:09;18.67;;;17.77;;
18021;SDS011;9136;48.822;7.966;2023-07-31T21:48:57;18.85;;;17.08;;
18021;SDS011;9136;48.822;7.966;2023-07-31T21:51:46;18.13;;;17.25;;
18021;SDS011;9136;48.822;7.966;2023-07-31T21:54:34;17.80;;;16.98;;
18021;SDS011;9136;48.822;7.966;2023-07-31T21:57:22;17.70;;;16.88;;
18021;SDS011;9136;48.822;7.966;2023-07-31T22:00:10;18.35;;;17.45;;
18021;SDS011;9136;48.822;7.966;2023-07-31T22:03:01;19.38;;;18.48;;
18021;SDS011;9136;48.822;7.966;2023-07-31T22:05:49;19.23;;;18.30;;
18021;SDS011;9136;48.822;7.966;2023-07-31T22:08:38;17.13;;;16.40;;
18021;SDS011;9136;48.822;7.966;2023-07-31T22:11:26;19.05;;;18.15;;
18021;SDS011;9136;48.822;7.966;2023-07-31T22:14:14;18.80;;;17.90;;
18021;SDS011;9136;48.822;7.966;2023-07-31T22:17:04;18.02;;;17.23;;
18021;SDS011;9136;48.822;7.966;2023-07-31T22:19:52;17.20;;;16.47;;
18021;SDS011;9136;48.822;7.966;2023-07-31T22:22:42;16.57;;;15.80;;
18021;SDS011;9136;48.822;7.966;2023-07-31T22:25:31;18.10;;;17.30;;
18021;SDS011;9136;48.822;7.966;2023-07-31T22:28:23;18.50;;;17.70;;
18021;SDS011;9136;48.822;7.966;2023-07-31T22:31:18;19.07;;;18.13;;
18021;SDS011;9136;48.822;7.966;2023-07-31T22:34:08;18.88;;;18.08;;
18021;SDS011;9136;48.822;7.966;2023-07-31T22:36:56;15.75;;;15.05;;